Meteo Giornale » Osservazioni meteo Stati Uniti (USA) » Minneapolis Airlake

ore: 13:35 - Osservazioni Meteo Minneapolis Airlake
Lat. 44° 37' N Lon. 93° 13' W Alt. 293 metri s.l.m.

sereno

30 °C

Sereno

Temp. 24 Ore

16 °C

33 °C

Nord

0 Km/h

Dew point 16 °C

Umidità 42 %

Visibilità  10 Km

Il sole sorge alle ore 06:35

Il sole tramonta alle ore 19:49

Data e Ora Cielo e Fenomeni T °C DP °C Um. % Pres. hPa Vis. km Vento km/h
Oggi h: 13:35 sereno Sereno 30 16 42 1014 10 N 0
Oggi h: 13:15 sereno Sereno 31 16 40 1014 10 N 0
Oggi h: 12:55 sereno Sereno 31 16 40 1014 10 N 5.5
Oggi h: 12:35 sereno Sereno 30 15 40 1015 10 N 0
Oggi h: 12:15 sereno Sereno 29 16 45 1015 10 N 0
Oggi h: 11:55 sereno Sereno 29 16 45 1015 10 N 5.5
Oggi h: 11:35 sereno Sereno 28 16 48 1015 10 N 0
Oggi h: 11:15 sereno Sereno 28 16 48 1015 10 N 0
Oggi h: 10:55 sereno Sereno 28 16 48 1015 10 N 5.5
Oggi h: 10:35 sereno Sereno 27 16 50 1015 10 NO 7.4
Oggi h: 10:15 sereno Sereno 26 17 57 1015 10 N 0
Oggi h: 09:35 sereno Sereno 24 18 69 1015 10 N 0
Oggi h: 09:15 sereno Sereno 23 17 68 1015 10 N 0
Oggi h: 08:55 sereno Sereno 22 17 73 1015 10 N 0
Oggi h: 08:35 sereno Sereno 22 17 73 1016 10 N 0
Oggi h: 08:15 sereno Sereno 21 18 82 1016 10 N 0
Oggi h: 07:55 sereno Sereno 18 18 100 1015 10 N 0
Oggi h: 07:35 sereno Sereno 17 17 100 1015 10 N 0
Oggi h: 07:15 sereno Sereno 17 17 100 1015 10 N 0
Oggi h: 06:55 sereno Sereno 16 16 100 1014 10 N 0
Oggi h: 06:35 sereno Sereno 16 16 100 1014 10 N 0
Oggi h: 06:15 sereno Sereno 16 16 100 1014 10 N 0
Oggi h: 05:55 sereno Sereno 16 16 100 1014 10 SO 7.4
Oggi h: 05:35 sereno Sereno 16 16 100 1014 10 N 0
Oggi h: 05:15 sereno Sereno 16 16 100 1014 10 N 0
Oggi h: 04:55 sereno Sereno 16 16 100 1014 10 N 0
Oggi h: 04:35 sereno Sereno 16 16 100 1014 10 N 0
Oggi h: 04:15 sereno Sereno 16 16 100 1014 10 N 0
Oggi h: 03:55 sereno Sereno 16 16 100 1014 10 N 0
Oggi h: 03:35 sereno Sereno 16 16 100 1014 10 N 0
Oggi h: 03:15 sereno Sereno 16 16 100 1014 11 N 0
Oggi h: 02:55 sereno Sereno 17 17 100 1014 10 N 0
Oggi h: 02:35 sereno Sereno 18 18 100 1014 10 N 0
Oggi h: 02:15 sereno Sereno 17 17 100 1014 10 N 0
Oggi h: 01:55 sereno Sereno 17 17 100 1014 10 N 0
Oggi h: 01:35 sereno Sereno 18 17 93 1014 10 N 0
Oggi h: 01:15 sereno Sereno 18 17 93 1014 10 N 0
Oggi h: 00:55 sereno Sereno 18 17 93 1014 10 N 0
Oggi h: 00:35 sereno Sereno 19 18 93 1014 10 N 0
Oggi h: 00:15 sereno Sereno 19 18 93 1014 10 N 0
Ieri h: 23:55 sereno Sereno 19 18 93 1013 10 N 0
Ieri h: 23:35 sereno Sereno 19 17 88 1013 10 N 0
Ieri h: 23:15 sereno Sereno 20 17 82 1013 10 N 0
Ieri h: 22:55 sereno Sereno 21 17 77 1013 10 N 5.5
Ieri h: 22:35 sereno Sereno 21 17 77 1014 10 N 5.5
Ieri h: 22:15 sereno Sereno 21 18 82 1013 10 N 0
Ieri h: 21:55 sereno Sereno 19 17 88 1013 10 N 0
Ieri h: 21:35 sereno Sereno 21 17 77 1013 10 N 0
Ieri h: 21:15 sereno Sereno 22 18 78 1013 10 N 0
Ieri h: 20:55 sereno Sereno 23 18 73 1013 10 N 5.5
Ieri h: 20:35 sereno Sereno 23 18 73 1013 10 N 5.5
Ieri h: 20:15 sereno Sereno 24 18 69 1012 10 N 5.5
Ieri h: 19:55 sereno Sereno 24 18 69 1012 10 O 7.4
Ieri h: 19:35 sereno Sereno 26 18 61 1012 10 O 7.4
Ieri h: 19:15 sereno Sereno 27 18 57 1012 10 O 9.3
Ieri h: 18:55 sereno Sereno 28 18 54 1012 10 O 7.4
Ieri h: 18:35 sereno Sereno 29 18 51 1012 10 O 7.4
Ieri h: 18:15 sereno Sereno 31 18 45 1012 10 O 7.4
Ieri h: 17:55 sereno Sereno 31 18 45 1012 10 O 13
Ieri h: 17:35 sereno Sereno 31 18 45 1012 10 O 9.3
Ieri h: 17:15 sereno Sereno 31 18 45 1011 10 O/NO 13
Ieri h: 16:55 nuvoloso Nuvoloso 31 16 40 1011 10 NO 7.4
Ieri h: 16:35 sereno Sereno 32 16 38 1011 10 O 7.4
Ieri h: 16:15 sereno Sereno 33 17 38 1011 10 O 7.4
Ieri h: 15:55 sereno Sereno 33 15 33 1011 10 O/NO 7.4
Ieri h: 15:35 sereno Sereno 33 16 36 1011 10 N 5.5
Ieri h: 15:15 sereno Sereno 33 16 36 1011 10 NO 7.4
Ieri h: 14:55 sereno Sereno 33 17 38 1011 10 NO 7.4
Ieri h: 14:35 sereno Sereno 32 19 46 1011 10 N 5.5
Ieri h: 14:15 sereno Sereno 32 20 49 1011 10 O/NO 11.1
Ieri h: 13:55 sereno Sereno 31 21 55 1011 10 N 7.4
Ieri h: 13:35 sereno Sereno 31 22 58 1011 10 O/NO 9.3